Indian River Shores, Florida
Current Conditions -  °F | °C
As of 5:53 PM on Thursday 27 Nov 2014 (Local Time) from KVRB Reporting Station
Clear Clear  
Wind Chill: 16°   Ceiling: Unl
Heat Index: 16°   Visibility: 10mi
Dew Point: 11°   Wind: 3mph
Humidity: 72%   Direction: 300°WNW
Pressure: 30.17"   Gusts: NA
Location:  27.7066°N, 80.3826°W
Report Text: KVRB 272253Z 30003KT 10SM CLR 16/11 A3017 RMK AO2 SLP216 T01560106
Loading
Personal Weather Stations






























Interactive Weather Map New forecast layout! Learn more

10-Day Weather Forecast

Advertisements
Track Severe Weather on mobile